Time;durP1;ratioP1;P1;durP2;ratioP2;P2;SDS_P1;SDS_P2;PMS_P1;PMS_P2;Temp;Humidity;BMP_temperature;BMP_pressure;BME280_temperature;BME280_humidity;BME280_pressure;Samples;Min_cycle;Max_cycle;Signal;HPM_P1;HPM_P2
2023/05/15 00:02:26;;;;;;;11.70;7.68;;;;;;;;;;5072368;28;20052;-68
2023/05/15 00:04:53;;;;;;;10.70;7.32;;;;;;;;;;5068149;28;20053;-68
2023/05/15 00:07:20;;;;;;;9.45;6.32;;;;;;;;;;5065753;28;20491;-68
2023/05/15 00:09:48;;;;;;;9.77;7.13;;;;;;;;;;5070559;28;20044;-68
2023/05/15 00:12:15;;;;;;;10.80;6.70;;;;;;;;;;5068798;28;20051;-69
2023/05/15 00:14:42;;;;;;;11.45;6.78;;;;;;;;;;5067751;28;20467;-68
2023/05/15 00:17:11;;;;;;;12.10;7.25;;;;;;;;;;5066925;28;20049;-69
2023/05/15 00:19:38;;;;;;;11.30;6.72;;;;;;;;;;5070505;28;20049;-68
2023/05/15 00:22:06;;;;;;;10.27;6.15;;;;;;;;;;5064894;28;20460;-68
2023/05/15 00:24:34;;;;;;;12.38;6.45;;;;;;;;;;5065270;28;20055;-68
2023/05/15 00:27:01;;;;;;;8.52;5.72;;;;;;;;;;5064974;28;20053;-68
2023/05/15 00:29:29;;;;;;;10.02;6.55;;;;;;;;;;5069073;28;20052;-68
2023/05/15 00:31:56;;;;;;;10.52;6.55;;;;;;;;;;5065972;28;20048;-68
2023/05/15 00:34:25;;;;;;;9.43;6.55;;;;;;;;;;5068608;28;20102;-68
2023/05/15 00:36:52;;;;;;;10.25;6.75;;;;;;;;;;5064377;28;20045;-68
2023/05/15 00:39:19;;;;;;;10.07;6.35;;;;;;;;;;5060719;28;20044;-68
2023/05/15 00:41:47;;;;;;;12.07;6.97;;;;;;;;;;5066476;28;20405;-68
2023/05/15 00:44:16;;;;;;;12.55;7.82;;;;;;;;;;5069349;28;20131;-68
2023/05/15 00:46:43;;;;;;;12.88;8.88;;;;;;;;;;5066547;28;20135;-68
2023/05/15 00:49:12;;;;;;;13.90;8.90;;;;;;;;;;5070097;28;20098;-68
2023/05/15 00:51:41;;;;;;;15.50;9.55;;;;;;;;;;5068147;28;20088;-68
2023/05/15 00:54:09;;;;;;;15.23;9.32;;;;;;;;;;5071512;28;20076;-68
2023/05/15 00:56:36;;;;;;;16.85;9.02;;;;;;;;;;5072065;28;20060;-68
2023/05/15 00:59:04;;;;;;;12.02;7.68;;;;;;;;;;5071763;28;20052;-68
2023/05/15 01:01:33;;;;;;;14.70;8.25;;;;;;;;;;5069668;28;20052;-68
2023/05/15 01:04:00;;;;;;;10.95;7.63;;;;;;;;;;5071763;28;20036;-69
2023/05/15 01:06:28;;;;;;;13.73;8.55;;;;;;;;;;5071603;28;20056;-68
2023/05/15 01:08:57;;;;;;;11.75;8.57;;;;;;;;;;5074103;28;20048;-68
2023/05/15 01:11:26;;;;;;;13.15;9.02;;;;;;;;;;5072185;28;20053;-68
2023/05/15 01:13:53;;;;;;;12.75;7.97;;;;;;;;;;5072573;28;20051;-68
2023/05/15 01:16:21;;;;;;;18.75;8.82;;;;;;;;;;5063737;28;20056;-68
2023/05/15 01:18:49;;;;;;;14.35;7.50;;;;;;;;;;5067350;28;20048;-68
2023/05/15 01:21:29;;;;;;;13.02;8.73;;;;;;;;;;5071076;28;20093;-68
2023/05/15 01:24:05;;;;;;;12.27;8.52;;;;;;;;;;5070448;28;20056;-68
2023/05/15 01:26:52;;;;;;;13.45;8.00;;;;;;;;;;5074238;28;20060;-68
2023/05/15 01:29:24;;;;;;;12.27;8.32;;;;;;;;;;5072841;28;20041;-68
2023/05/15 01:31:53;;;;;;;11.95;7.93;;;;;;;;;;5062973;28;20515;-68
2023/05/15 01:34:21;;;;;;;12.13;7.78;;;;;;;;;;5074233;28;20044;-68
2023/05/15 01:36:50;;;;;;;10.15;7.10;;;;;;;;;;5070767;28;20475;-68
2023/05/15 01:39:21;;;;;;;10.73;6.55;;;;;;;;;;5073392;28;20044;-68
2023/05/15 01:41:52;;;;;;;10.98;7.03;;;;;;;;;;5071606;28;20058;-68
2023/05/15 01:44:23;;;;;;;9.98;6.85;;;;;;;;;;5072414;28;20067;-68
2023/05/15 01:46:51;;;;;;;10.43;6.40;;;;;;;;;;5071783;28;20147;-68
2023/05/15 01:49:20;;;;;;;10.57;6.63;;;;;;;;;;5069829;28;20059;-68
2023/05/15 01:51:48;;;;;;;10.05;6.57;;;;;;;;;;5071873;28;20048;-68
2023/05/15 01:54:16;;;;;;;10.75;6.95;;;;;;;;;;5071751;28;20044;-68
2023/05/15 01:56:45;;;;;;;10.95;7.00;;;;;;;;;;5072279;28;20053;-68
2023/05/15 01:59:12;;;;;;;9.15;6.68;;;;;;;;;;5063769;28;20080;-68
2023/05/15 02:01:42;;;;;;;11.88;7.50;;;;;;;;;;5070704;28;20078;-69
2023/05/15 02:04:10;;;;;;;12.27;6.82;;;;;;;;;;5062592;28;20083;-68
2023/05/15 02:06:37;;;;;;;11.20;6.70;;;;;;;;;;5059784;28;20048;-68
2023/05/15 02:09:05;;;;;;;9.77;6.35;;;;;;;;;;5066534;28;20056;-68
2023/05/15 02:11:32;;;;;;;10.13;6.13;;;;;;;;;;5067492;28;20110;-68
2023/05/15 02:14:00;;;;;;;11.27;6.93;;;;;;;;;;5066718;28;20051;-69
2023/05/15 02:16:27;;;;;;;10.15;6.57;;;;;;;;;;5061281;28;20045;-68
2023/05/15 02:18:56;;;;;;;9.50;6.15;;;;;;;;;;5067076;28;20067;-68
2023/05/15 02:21:23;;;;;;;10.68;6.57;;;;;;;;;;5064189;28;20473;-68
2023/05/15 02:23:50;;;;;;;11.68;7.07;;;;;;;;;;5067255;28;20526;-68
2023/05/15 02:26:26;;;;;;;11.35;7.18;;;;;;;;;;5066434;28;20135;-68
2023/05/15 02:28:56;;;;;;;10.95;7.32;;;;;;;;;;5067278;28;20060;-68
2023/05/15 02:31:27;;;;;;;12.27;6.85;;;;;;;;;;5070345;28;20044;-68
2023/05/15 02:33:59;;;;;;;11.93;7.53;;;;;;;;;;5069147;28;20045;-69
2023/05/15 02:36:30;;;;;;;12.90;7.50;;;;;;;;;;5071710;28;20056;-68
2023/05/15 02:38:58;;;;;;;9.95;7.40;;;;;;;;;;5071043;28;20177;-68
2023/05/15 02:41:26;;;;;;;11.88;7.68;;;;;;;;;;5070158;28;20518;-68
2023/05/15 02:43:55;;;;;;;16.30;8.43;;;;;;;;;;5064144;28;20049;-68
2023/05/15 02:46:23;;;;;;;13.40;8.27;;;;;;;;;;5068243;28;20131;-68
2023/05/15 02:48:51;;;;;;;12.85;8.00;;;;;;;;;;5070448;28;20102;-69
2023/05/15 02:51:20;;;;;;;12.90;7.88;;;;;;;;;;5066263;28;20056;-68
2023/05/15 02:53:47;;;;;;;12.43;7.60;;;;;;;;;;5068808;28;20412;-69
2023/05/15 02:56:14;;;;;;;12.65;7.57;;;;;;;;;;5062504;28;20555;-68
2023/05/15 02:58:42;;;;;;;16.17;9.25;;;;;;;;;;5072014;28;20108;-69
2023/05/15 03:01:09;;;;;;;14.25;8.25;;;;;;;;;;5067992;28;20044;-68
2023/05/15 03:03:36;;;;;;;12.80;8.30;;;;;;;;;;5070922;28;20060;-68
2023/05/15 03:06:03;;;;;;;11.80;7.80;;;;;;;;;;5068607;28;20529;-69
2023/05/15 03:08:32;;;;;;;14.02;8.10;;;;;;;;;;5071768;28;20060;-68
2023/05/15 03:10:59;;;;;;;12.13;7.70;;;;;;;;;;5066143;28;20515;-68
2023/05/15 03:13:26;;;;;;;13.55;8.77;;;;;;;;;;5072277;28;20056;-68
2023/05/15 03:15:54;;;;;;;11.98;7.65;;;;;;;;;;5068738;28;20045;-68
2023/05/15 03:18:21;;;;;;;13.25;8.13;;;;;;;;;;5063450;28;20392;-68
2023/05/15 03:20:49;;;;;;;14.32;7.90;;;;;;;;;;5070761;28;20503;-68
2023/05/15 03:23:16;;;;;;;10.95;7.18;;;;;;;;;;5063814;28;20064;-68
2023/05/15 03:25:45;;;;;;;13.88;7.63;;;;;;;;;;5067217;28;20500;-68
2023/05/15 03:28:12;;;;;;;12.52;7.50;;;;;;;;;;5068469;28;20045;-68
2023/05/15 03:30:39;;;;;;;12.85;7.93;;;;;;;;;;5069885;28;20518;-68
2023/05/15 03:33:06;;;;;;;14.35;7.40;;;;;;;;;;5068873;28;20055;-69
2023/05/15 03:35:34;;;;;;;12.25;7.70;;;;;;;;;;5069703;28;20440;-68
2023/05/15 03:38:02;;;;;;;13.70;7.88;;;;;;;;;;5061690;28;20587;-69
2023/05/15 03:40:29;;;;;;;13.52;7.88;;;;;;;;;;5069610;28;20052;-69
2023/05/15 03:42:58;;;;;;;13.50;8.43;;;;;;;;;;5068534;28;20048;-68
2023/05/15 03:45:25;;;;;;;12.32;8.05;;;;;;;;;;5068938;28;20048;-68
2023/05/15 03:47:52;;;;;;;11.90;7.55;;;;;;;;;;5066331;28;20393;-68
2023/05/15 03:50:19;;;;;;;11.63;7.80;;;;;;;;;;5068770;28;20052;-68
2023/05/15 03:52:46;;;;;;;16.63;8.52;;;;;;;;;;5064650;28;20609;-68
2023/05/15 03:55:14;;;;;;;12.35;7.68;;;;;;;;;;5067140;28;20051;-69
2023/05/15 03:57:41;;;;;;;14.00;7.97;;;;;;;;;;5069615;28;20074;-68
2023/05/15 04:00:10;;;;;;;15.73;7.88;;;;;;;;;;5067964;28;20076;-68
2023/05/15 04:02:39;;;;;;;15.95;8.00;;;;;;;;;;5068909;28;20098;-68
2023/05/15 04:05:06;;;;;;;14.70;7.97;;;;;;;;;;5065539;28;20053;-68
2023/05/15 04:07:34;;;;;;;11.02;6.80;;;;;;;;;;5068472;28;20056;-68
2023/05/15 04:10:01;;;;;;;10.65;6.70;;;;;;;;;;5064127;28;20147;-68
2023/05/15 04:12:29;;;;;;;9.75;6.40;;;;;;;;;;5061981;28;20076;-68
2023/05/15 04:14:56;;;;;;;11.02;6.45;;;;;;;;;;5065328;28;20045;-68
2023/05/15 04:17:25;;;;;;;12.90;6.75;;;;;;;;;;5063843;28;20075;-69
2023/05/15 04:19:52;;;;;;;12.20;6.18;;;;;;;;;;5067651;28;20495;-68
2023/05/15 04:22:19;;;;;;;10.05;6.95;;;;;;;;;;5067022;28;20044;-68
2023/05/15 04:24:47;;;;;;;12.82;7.70;;;;;;;;;;5063145;28;20052;-68
2023/05/15 04:27:15;;;;;;;12.20;7.60;;;;;;;;;;5067407;28;20051;-68
2023/05/15 04:29:42;;;;;;;14.40;8.40;;;;;;;;;;5068688;28;20059;-68
2023/05/15 04:32:09;;;;;;;14.02;8.32;;;;;;;;;;5063110;28;20045;-68
2023/05/15 04:34:38;;;;;;;12.43;6.95;;;;;;;;;;5063650;28;20059;-68
2023/05/15 04:37:05;;;;;;;12.38;7.47;;;;;;;;;;5060678;28;20040;-68
2023/05/15 04:39:32;;;;;;;13.02;7.63;;;;;;;;;;5065711;28;20064;-68
2023/05/15 04:41:59;;;;;;;12.60;7.57;;;;;;;;;;5065047;28;20044;-68
2023/05/15 04:44:27;;;;;;;12.70;7.47;;;;;;;;;;5069150;28;20043;-68
2023/05/15 04:46:54;;;;;;;13.57;8.00;;;;;;;;;;5059664;28;20045;-68
2023/05/15 04:49:21;;;;;;;13.30;8.60;;;;;;;;;;5066419;28;20048;-68
2023/05/15 04:51:50;;;;;;;17.25;9.40;;;;;;;;;;5058808;28;20044;-68
2023/05/15 04:54:17;;;;;;;11.73;7.88;;;;;;;;;;5067972;28;20048;-68
2023/05/15 04:56:45;;;;;;;14.07;8.38;;;;;;;;;;5067209;28;20411;-68
2023/05/15 04:59:14;;;;;;;16.05;9.02;;;;;;;;;;5068802;28;20059;-68
2023/05/15 05:01:42;;;;;;;13.10;8.25;;;;;;;;;;5064921;28;20408;-68
2023/05/15 05:04:09;;;;;;;14.05;8.40;;;;;;;;;;5063173;28;20055;-69
2023/05/15 05:06:36;;;;;;;12.35;7.95;;;;;;;;;;5057974;28;20052;-68
2023/05/15 05:09:05;;;;;;;14.48;8.32;;;;;;;;;;5063130;28;20099;-68
2023/05/15 05:11:32;;;;;;;14.10;9.27;;;;;;;;;;5065152;28;20091;-68
2023/05/15 05:14:00;;;;;;;12.85;7.70;;;;;;;;;;5063760;28;20048;-68
2023/05/15 05:16:27;;;;;;;12.68;8.32;;;;;;;;;;5067864;28;20435;-68
2023/05/15 05:18:54;;;;;;;11.32;7.68;;;;;;;;;;5067709;28;20051;-68
2023/05/15 05:21:21;;;;;;;12.10;8.02;;;;;;;;;;5067655;28;20060;-68
2023/05/15 05:23:48;;;;;;;13.30;8.70;;;;;;;;;;5066179;28;20056;-68
2023/05/15 05:26:17;;;;;;;12.90;8.10;;;;;;;;;;5067496;28;20059;-68
2023/05/15 05:28:44;;;;;;;13.02;8.80;;;;;;;;;;5064774;28;20052;-68
2023/05/15 05:31:12;;;;;;;12.60;8.38;;;;;;;;;;5064634;28;20048;-68
2023/05/15 05:33:39;;;;;;;12.32;8.68;;;;;;;;;;5066508;28;20411;-69
2023/05/15 05:36:06;;;;;;;11.05;8.13;;;;;;;;;;5063457;28;20060;-69
2023/05/15 05:38:34;;;;;;;10.25;6.15;;;;;;;;;;5067794;28;20530;-69
2023/05/15 05:41:01;;;;;;;10.13;6.70;;;;;;;;;;5065243;28;20524;-68
2023/05/15 05:43:30;;;;;;;10.85;6.57;;;;;;;;;;5072740;28;20044;-68
2023/05/15 05:45:58;;;;;;;9.70;7.13;;;;;;;;;;5062384;28;20376;-68
2023/05/15 05:48:25;;;;;;;13.45;6.75;;;;;;;;;;5065000;28;20048;-68
2023/05/15 05:50:52;;;;;;;8.95;5.82;;;;;;;;;;5070493;28;20402;-68
2023/05/15 05:53:19;;;;;;;7.85;4.88;;;;;;;;;;5072031;28;21043;-68
2023/05/15 05:55:47;;;;;;;9.18;5.93;;;;;;;;;;5069710;28;20053;-69
2023/05/15 05:58:16;;;;;;;9.90;6.10;;;;;;;;;;5066803;28;20045;-68
2023/05/15 06:00:44;;;;;;;9.90;5.72;;;;;;;;;;5071468;28;20090;-68
2023/05/15 06:03:12;;;;;;;9.73;6.30;;;;;;;;;;5060685;28;20040;-68
2023/05/15 06:05:39;;;;;;;6.47;3.08;;;;;;;;;;5069060;28;20137;-68
2023/05/15 06:08:07;;;;;;;8.55;3.08;;;;;;;;;;5071008;28;20513;-68
2023/05/15 06:10:34;;;;;;;5.53;3.50;;;;;;;;;;5064079;28;20055;-68
2023/05/15 06:13:01;;;;;;;5.60;4.25;;;;;;;;;;5070844;28;20349;-68
2023/05/15 06:15:28;;;;;;;6.25;4.32;;;;;;;;;;5066861;28;20048;-68
2023/05/15 06:17:57;;;;;;;6.95;4.82;;;;;;;;;;5072037;28;20044;-68
2023/05/15 06:20:24;;;;;;;5.90;4.13;;;;;;;;;;5069519;28;20059;-68
2023/05/15 06:22:52;;;;;;;7.45;5.60;;;;;;;;;;5055560;28;20056;-68
2023/05/15 06:25:19;;;;;;;6.32;3.95;;;;;;;;;;5065348;28;20081;-69
2023/05/15 06:27:47;;;;;;;7.35;4.68;;;;;;;;;;5071513;28;20544;-68
2023/05/15 06:30:14;;;;;;;8.38;6.15;;;;;;;;;;5067678;28;20080;-68
2023/05/15 06:32:42;;;;;;;6.78;4.82;;;;;;;;;;5070009;28;20048;-68
2023/05/15 06:35:11;;;;;;;5.00;3.40;;;;;;;;;;5065521;28;20044;-68
2023/05/15 06:37:38;;;;;;;6.72;3.35;;;;;;;;;;5068043;28;20079;-68
2023/05/15 06:40:06;;;;;;;6.22;4.40;;;;;;;;;;5071129;28;20055;-68
2023/05/15 06:42:33;;;;;;;6.72;3.22;;;;;;;;;;5067929;28;20040;-68
2023/05/15 06:45:01;;;;;;;3.28;2.28;;;;;;;;;;5067315;28;20041;-68
2023/05/15 06:47:28;;;;;;;3.58;2.55;;;;;;;;;;5066410;28;20075;-68
2023/05/15 06:49:55;;;;;;;3.28;2.58;;;;;;;;;;5064032;28;20045;-68
2023/05/15 06:52:24;;;;;;;5.57;4.25;;;;;;;;;;5068031;28;20412;-68
2023/05/15 06:54:51;;;;;;;3.30;2.40;;;;;;;;;;5070127;28;20044;-68
2023/05/15 06:57:19;;;;;;;3.20;2.33;;;;;;;;;;5057252;28;20154;-68
2023/05/15 06:59:47;;;;;;;6.75;3.35;;;;;;;;;;5063473;28;20067;-69
2023/05/15 07:02:14;;;;;;;4.57;2.72;;;;;;;;;;5061820;28;20636;-68
2023/05/15 07:04:41;;;;;;;4.97;2.90;;;;;;;;;;5066358;28;20051;-68
2023/05/15 07:07:08;;;;;;;4.60;2.58;;;;;;;;;;5064275;28;20063;-69
2023/05/15 07:09:38;;;;;;;4.30;2.78;;;;;;;;;;5064579;28;20083;-68
2023/05/15 07:12:05;;;;;;;3.35;2.63;;;;;;;;;;5065463;28;20471;-68
2023/05/15 07:14:32;;;;;;;3.95;3.03;;;;;;;;;;5059027;28;20048;-68
2023/05/15 07:17:00;;;;;;;6.38;3.20;;;;;;;;;;5065058;28;20049;-68
2023/05/15 07:19:27;;;;;;;5.82;3.00;;;;;;;;;;5069221;28;20071;-68
2023/05/15 07:21:54;;;;;;;4.38;3.40;;;;;;;;;;5068838;28;20411;-68
2023/05/15 07:24:22;;;;;;;4.20;3.47;;;;;;;;;;5062674;28;20051;-68
2023/05/15 07:26:50;;;;;;;4.32;3.10;;;;;;;;;;5067120;28;20062;-69
2023/05/15 07:29:17;;;;;;;4.18;2.75;;;;;;;;;;5069803;28;20044;-69
2023/05/15 07:31:45;;;;;;;4.93;3.47;;;;;;;;;;5067819;28;20052;-69
2023/05/15 07:34:12;;;;;;;5.20;3.30;;;;;;;;;;5067488;28;20499;-69
2023/05/15 07:36:39;;;;;;;3.38;2.45;;;;;;;;;;5067251;28;20052;-68
2023/05/15 07:39:07;;;;;;;4.68;3.13;;;;;;;;;;5067434;28;20052;-70
2023/05/15 07:41:34;;;;;;;4.43;2.97;;;;;;;;;;5066260;28;20048;-69
2023/05/15 07:44:02;;;;;;;3.72;2.72;;;;;;;;;;5071312;28;20058;-69
2023/05/15 07:46:30;;;;;;;6.93;2.80;;;;;;;;;;5068221;28;20044;-69
2023/05/15 07:48:57;;;;;;;3.15;2.65;;;;;;;;;;5067360;28;20097;-69
2023/05/15 07:51:25;;;;;;;4.75;3.00;;;;;;;;;;5067403;28;20052;-69
2023/05/15 07:53:52;;;;;;;3.67;2.90;;;;;;;;;;5067710;28;20508;-68
2023/05/15 07:56:19;;;;;;;5.30;2.58;;;;;;;;;;5065740;28;20094;-69
2023/05/15 07:58:46;;;;;;;4.68;3.42;;;;;;;;;;5062647;28;20048;-69
2023/05/15 08:01:15;;;;;;;5.30;3.50;;;;;;;;;;5063210;28;20047;-68
2023/05/15 08:03:42;;;;;;;4.50;3.45;;;;;;;;;;5064814;28;20047;-68
2023/05/15 08:06:10;;;;;;;5.30;3.50;;;;;;;;;;5060106;28;20135;-68
2023/05/15 08:08:37;;;;;;;4.35;3.08;;;;;;;;;;5068838;28;20047;-69
2023/05/15 08:11:04;;;;;;;4.88;3.15;;;;;;;;;;5062577;28;20049;-69
2023/05/15 08:13:31;;;;;;;6.55;2.90;;;;;;;;;;5064925;28;20052;-68
2023/05/15 08:15:59;;;;;;;5.15;3.13;;;;;;;;;;5062475;28;20401;-68
2023/05/15 08:18:27;;;;;;;4.30;2.83;;;;;;;;;;5067918;28;20060;-68
2023/05/15 08:20:54;;;;;;;4.55;3.40;;;;;;;;;;5062398;28;20431;-68
2023/05/15 08:23:23;;;;;;;4.40;3.05;;;;;;;;;;5059816;28;20056;-68
2023/05/15 08:25:50;;;;;;;4.90;3.10;;;;;;;;;;5064649;28;20043;-69
2023/05/15 08:28:17;;;;;;;5.70;2.90;;;;;;;;;;5063792;28;20099;-68
2023/05/15 08:30:44;;;;;;;3.20;2.50;;;;;;;;;;5058836;28;20056;-68
2023/05/15 08:33:12;;;;;;;4.35;2.75;;;;;;;;;;5067484;28;20048;-69
2023/05/15 08:35:40;;;;;;;3.63;2.45;;;;;;;;;;5064563;28;20416;-68
2023/05/15 08:38:07;;;;;;;5.40;3.20;;;;;;;;;;5061615;28;20472;-68
2023/05/15 08:40:35;;;;;;;4.35;3.28;;;;;;;;;;5064215;28;20049;-69
2023/05/15 08:43:04;;;;;;;5.35;3.83;;;;;;;;;;5063169;28;20071;-69
2023/05/15 08:45:31;;;;;;;5.78;3.30;;;;;;;;;;5066516;28;20047;-69
2023/05/15 08:47:59;;;;;;;5.68;3.63;;;;;;;;;;5061999;28;20391;-69
2023/05/15 08:50:26;;;;;;;4.25;3.30;;;;;;;;;;5066140;28;20049;-68
2023/05/15 08:52:57;;;;;;;3.92;2.58;;;;;;;;;;5070320;28;20065;-68
2023/05/15 08:55:24;;;;;;;3.88;2.63;;;;;;;;;;5062133;28;20052;-69
2023/05/15 08:57:51;;;;;;;5.82;3.38;;;;;;;;;;5058748;28;20056;-68
2023/05/15 09:00:20;;;;;;;4.63;2.90;;;;;;;;;;5056517;28;20048;-68
2023/05/15 09:02:48;;;;;;;5.22;3.15;;;;;;;;;;5059448;28;20049;-68
2023/05/15 09:05:15;;;;;;;4.97;3.25;;;;;;;;;;5058852;28;20170;-68
2023/05/15 09:07:43;;;;;;;3.63;3.05;;;;;;;;;;5059458;28;20056;-68
2023/05/15 09:10:13;;;;;;;5.63;3.33;;;;;;;;;;5059498;28;20048;-68
2023/05/15 09:12:43;;;;;;;4.75;2.80;;;;;;;;;;5061046;28;20045;-68
2023/05/15 09:15:11;;;;;;;5.72;3.17;;;;;;;;;;5071327;28;20198;-68
2023/05/15 09:17:39;;;;;;;6.43;2.78;;;;;;;;;;5069419;28;20507;-68
2023/05/15 09:20:07;;;;;;;4.05;3.10;;;;;;;;;;5063681;28;20057;-68
2023/05/15 09:22:35;;;;;;;4.43;3.08;;;;;;;;;;5071688;28;20056;-68
2023/05/15 09:25:02;;;;;;;3.05;2.47;;;;;;;;;;5068502;28;20061;-68
2023/05/15 09:27:31;;;;;;;2.85;2.45;;;;;;;;;;5071646;28;20057;-68
2023/05/15 09:30:09;;;;;;;3.72;2.70;;;;;;;;;;5070173;28;20052;-68
2023/05/15 09:32:37;;;;;;;3.42;2.80;;;;;;;;;;5071145;28;20052;-68
2023/05/15 09:35:05;;;;;;;4.60;3.00;;;;;;;;;;5070426;28;21148;-68
2023/05/15 09:37:33;;;;;;;5.78;3.00;;;;;;;;;;5067848;28;20045;-69
2023/05/15 09:40:10;;;;;;;4.43;3.38;;;;;;;;;;5068375;28;20102;-68
2023/05/15 09:42:39;;;;;;;3.42;2.45;;;;;;;;;;5071461;28;20080;-69
2023/05/15 09:45:07;;;;;;;3.28;2.25;;;;;;;;;;5070445;28;20466;-69
2023/05/15 09:47:34;;;;;;;3.22;2.45;;;;;;;;;;5069696;28;20051;-69
2023/05/15 09:50:01;;;;;;;3.10;2.45;;;;;;;;;;5068134;28;20453;-69
2023/05/15 09:52:29;;;;;;;3.33;2.58;;;;;;;;;;5069122;28;20052;-69
2023/05/15 09:54:57;;;;;;;4.07;2.50;;;;;;;;;;5072327;28;20055;-68
2023/05/15 09:57:24;;;;;;;3.90;2.63;;;;;;;;;;5067297;28;20141;-69
2023/05/15 09:59:53;;;;;;;3.67;2.40;;;;;;;;;;5064667;28;20044;-69
2023/05/15 10:02:23;;;;;;;6.78;3.13;;;;;;;;;;5064193;28;20041;-69
2023/05/15 10:04:57;;;;;;;3.38;2.35;;;;;;;;;;5067330;28;20103;-67
2023/05/15 10:07:28;;;;;;;4.40;2.25;;;;;;;;;;5063927;28;20055;-67
2023/05/15 10:09:56;;;;;;;3.33;2.15;;;;;;;;;;5067761;28;20124;-67
2023/05/15 10:12:23;;;;;;;4.45;1.92;;;;;;;;;;5067410;28;20040;-68
2023/05/15 10:14:52;;;;;;;4.57;2.58;;;;;;;;;;5071869;28;20086;-67
2023/05/15 10:17:20;;;;;;;3.08;2.15;;;;;;;;;;5068700;28;20380;-67
2023/05/15 10:19:50;;;;;;;3.20;2.00;;;;;;;;;;5071214;28;20055;-67
2023/05/15 10:22:20;;;;;;;4.10;2.40;;;;;;;;;;5062977;28;20118;-67
2023/05/15 10:24:47;;;;;;;3.97;2.20;;;;;;;;;;5063035;28;20056;-67
2023/05/15 10:27:16;;;;;;;6.00;1.90;;;;;;;;;;5068322;28;20059;-67
2023/05/15 10:29:43;;;;;;;2.47;1.90;;;;;;;;;;5067055;28;20068;-67
2023/05/15 10:32:13;;;;;;;5.10;2.40;;;;;;;;;;5070762;28;20715;-68
2023/05/15 10:34:40;;;;;;;3.30;2.17;;;;;;;;;;5069420;28;20499;-67
2023/05/15 10:37:08;;;;;;;3.10;1.90;;;;;;;;;;5070434;28;20044;-67
2023/05/15 10:39:38;;;;;;;2.70;2.08;;;;;;;;;;5062629;28;20060;-68
2023/05/15 10:42:06;;;;;;;3.05;2.30;;;;;;;;;;5070615;28;21985;-67
2023/05/15 10:44:34;;;;;;;2.28;1.67;;;;;;;;;;5068196;28;20536;-67
2023/05/15 10:47:01;;;;;;;2.85;1.67;;;;;;;;;;5070825;28;20065;-67
2023/05/15 10:49:30;;;;;;;4.75;1.75;;;;;;;;;;5070151;28;20079;-67
2023/05/15 10:52:00;;;;;;;2.15;1.70;;;;;;;;;;5071253;28;20059;-68
2023/05/15 10:54:27;;;;;;;3.13;2.17;;;;;;;;;;5067523;28;20122;-67
2023/05/15 10:56:56;;;;;;;2.92;2.05;;;;;;;;;;5070431;28;20041;-67
2023/05/15 10:59:31;;;;;;;2.63;2.05;;;;;;;;;;5066011;28;20061;-67
2023/05/15 11:01:58;;;;;;;3.53;2.22;;;;;;;;;;5062685;28;20049;-67
2023/05/15 11:04:26;;;;;;;3.78;2.58;;;;;;;;;;5072857;28;20396;-66
2023/05/15 11:07:12;;;;;;;5.20;2.88;;;;;;;;;;5062489;28;20048;-67
2023/05/15 11:09:39;;;;;;;3.25;1.95;;;;;;;;;;5066990;28;20045;-68
2023/05/15 11:12:07;;;;;;;3.10;2.40;;;;;;;;;;5064959;28;20048;-67
2023/05/15 11:14:36;;;;;;;4.78;2.60;;;;;;;;;;5066467;28;20059;-67
2023/05/15 11:17:04;;;;;;;4.43;3.03;;;;;;;;;;5064712;28;20049;-67
2023/05/15 11:19:33;;;;;;;3.47;2.70;;;;;;;;;;5066724;28;20060;-67
2023/05/15 11:22:03;;;;;;;3.42;2.88;;;;;;;;;;5067419;28;20508;-67
2023/05/15 11:24:30;;;;;;;5.88;2.83;;;;;;;;;;5062510;28;20084;-67
2023/05/15 11:27:01;;;;;;;4.35;2.63;;;;;;;;;;5065698;28;20365;-68
2023/05/15 11:29:29;;;;;;;3.25;2.70;;;;;;;;;;5067083;28;20057;-67
2023/05/15 11:31:56;;;;;;;3.03;2.50;;;;;;;;;;5064674;28;20047;-67
2023/05/15 11:34:30;;;;;;;4.38;3.17;;;;;;;;;;5067129;28;20045;-68
2023/05/15 11:36:58;;;;;;;4.65;2.83;;;;;;;;;;5066731;28;20040;-68
2023/05/15 11:39:27;;;;;;;4.93;3.70;;;;;;;;;;5063945;28;20497;-68
2023/05/15 11:41:55;;;;;;;4.45;3.75;;;;;;;;;;5066785;28;20063;-68
2023/05/15 11:44:22;;;;;;;4.32;3.22;;;;;;;;;;5068044;28;20575;-67
2023/05/15 11:46:50;;;;;;;3.50;2.80;;;;;;;;;;5066212;28;20071;-68
2023/05/15 11:49:19;;;;;;;4.93;3.17;;;;;;;;;;5063666;28;20493;-67
2023/05/15 11:51:48;;;;;;;3.75;3.05;;;;;;;;;;5066986;28;20060;-68
2023/05/15 11:54:15;;;;;;;3.58;2.70;;;;;;;;;;5065818;28;20048;-68
2023/05/15 11:56:45;;;;;;;4.65;2.70;;;;;;;;;;5067362;28;20044;-68
2023/05/15 11:59:14;;;;;;;3.45;2.63;;;;;;;;;;5064500;28;20053;-68
2023/05/15 12:01:42;;;;;;;5.10;2.50;;;;;;;;;;5069277;28;20545;-68
2023/05/15 12:04:15;;;;;;;3.58;2.63;;;;;;;;;;5070114;28;20140;-68
2023/05/15 12:06:43;;;;;;;;;;;;;;;;;;5066956;28;20071;-68
2023/05/15 12:09:14;;;;;;;4.45;3.00;;;;;;;;;;5066650;28;19927;-68
2023/05/15 12:11:48;;;;;;;3.92;2.70;;;;;;;;;;5060980;28;20135;-67
2023/05/15 12:14:15;;;;;;;;;;;;;;;;;;5062174;28;20048;-67
2023/05/15 12:16:42;;;;;;;4.03;2.70;;;;;;;;;;5067903;28;19920;-68
2023/05/15 12:19:10;;;;;;;4.85;2.90;;;;;;;;;;5067051;28;20059;-67
2023/05/15 12:21:42;;;;;;;4.40;2.60;;;;;;;;;;5068828;28;20080;-68
2023/05/15 12:24:12;;;;;;;6.13;3.13;;;;;;;;;;5060401;28;20543;-68
2023/05/15 12:26:40;;;;;;;3.03;2.45;;;;;;;;;;5066950;28;20048;-68
2023/05/15 12:29:08;;;;;;;4.28;2.38;;;;;;;;;;5068648;28;20052;-68
2023/05/15 12:31:36;;;;;;;3.20;2.20;;;;;;;;;;5066061;28;20048;-68
2023/05/15 12:34:04;;;;;;;3.17;2.30;;;;;;;;;;5068176;28;20051;-68
2023/05/15 12:36:32;;;;;;;3.55;2.75;;;;;;;;;;5065454;28;20480;-68
2023/05/15 12:38:59;;;;;;;3.22;2.40;;;;;;;;;;5068284;28;20052;-68
2023/05/15 12:41:30;;;;;;;3.08;2.47;;;;;;;;;;5067944;28;20044;-68
2023/05/15 12:43:57;;;;;;;4.78;2.40;;;;;;;;;;5067967;28;20491;-68
2023/05/15 12:46:26;;;;;;;4.30;2.72;;;;;;;;;;5067881;28;20048;-68
2023/05/15 12:48:53;;;;;;;3.60;2.75;;;;;;;;;;5065806;28;20488;-68
2023/05/15 12:51:23;;;;;;;3.35;2.50;;;;;;;;;;5070956;28;20492;-67
2023/05/15 12:53:52;;;;;;;2.88;2.05;;;;;;;;;;5070982;28;20062;-67
2023/05/15 12:56:20;;;;;;;3.22;2.38;;;;;;;;;;5069232;28;20044;-66
2023/05/15 12:58:48;;;;;;;2.90;2.45;;;;;;;;;;5070240;28;20045;-67
2023/05/15 13:01:16;;;;;;;3.25;2.33;;;;;;;;;;5073271;28;20047;-67
2023/05/15 13:03:44;;;;;;;3.53;2.80;;;;;;;;;;5073040;28;20052;-67
2023/05/15 13:06:12;;;;;;;7.07;2.92;;;;;;;;;;5069488;28;20146;-68
2023/05/15 13:08:42;;;;;;;4.03;2.75;;;;;;;;;;5069155;28;20515;-67
2023/05/15 13:11:12;;;;;;;3.97;2.80;;;;;;;;;;5069099;28;20056;-66
2023/05/15 13:13:46;;;;;;;3.95;3.03;;;;;;;;;;5070493;28;20527;-67
2023/05/15 13:16:20;;;;;;;3.72;2.78;;;;;;;;;;5073194;28;20053;-67
2023/05/15 13:18:49;;;;;;;4.35;3.28;;;;;;;;;;5069095;28;20052;-67
2023/05/15 13:21:16;;;;;;;4.30;3.40;;;;;;;;;;5073200;28;20044;-66
2023/05/15 13:23:43;;;;;;;3.38;2.63;;;;;;;;;;5066537;28;20049;-67
2023/05/15 13:26:11;;;;;;;3.90;3.00;;;;;;;;;;5072740;28;20053;-67
2023/05/15 13:28:38;;;;;;;3.83;3.05;;;;;;;;;;5070840;28;20460;-67
2023/05/15 13:31:05;;;;;;;4.30;3.05;;;;;;;;;;5067312;28;20075;-67
2023/05/15 13:33:34;;;;;;;4.70;3.42;;;;;;;;;;5071349;28;20128;-67
2023/05/15 13:36:03;;;;;;;3.47;3.17;;;;;;;;;;5070203;28;20044;-67
2023/05/15 13:38:30;;;;;;;7.30;3.60;;;;;;;;;;5070320;28;20040;-66
2023/05/15 13:40:57;;;;;;;3.55;2.67;;;;;;;;;;5075329;28;20055;-66
2023/05/15 13:43:25;;;;;;;3.88;2.85;;;;;;;;;;5072101;28;20044;-67
2023/05/15 13:45:52;;;;;;;3.40;2.47;;;;;;;;;;5070511;28;20079;-67
2023/05/15 13:48:19;;;;;;;3.40;2.75;;;;;;;;;;5071775;28;20041;-65
2023/05/15 13:50:47;;;;;;;2.53;2.28;;;;;;;;;;5070688;28;20070;-66
2023/05/15 13:53:16;;;;;;;4.32;3.15;;;;;;;;;;5070929;28;20048;-67
2023/05/15 13:55:44;;;;;;;2.88;2.30;;;;;;;;;;5073131;28;20052;-67
2023/05/15 13:58:12;;;;;;;3.25;2.38;;;;;;;;;;5064141;28;20044;-66
2023/05/15 14:00:39;;;;;;;3.10;2.40;;;;;;;;;;5071102;28;20195;-67
2023/05/15 14:03:06;;;;;;;4.43;2.63;;;;;;;;;;5069681;28;20491;-67
2023/05/15 14:05:34;;;;;;;3.17;2.58;;;;;;;;;;5069164;28;20048;-67
2023/05/15 14:08:01;;;;;;;3.03;2.67;;;;;;;;;;5072273;28;20052;-67
2023/05/15 14:10:30;;;;;;;3.83;2.80;;;;;;;;;;5072649;28;20052;-67
2023/05/15 14:12:57;;;;;;;5.05;3.10;;;;;;;;;;5067150;28;20044;-66
2023/05/15 14:15:24;;;;;;;2.90;2.60;;;;;;;;;;5065197;28;20404;-70
2023/05/15 14:17:51;;;;;;;3.25;2.60;;;;;;;;;;5061927;28;20139;-70
2023/05/15 14:20:19;;;;;;;3.55;2.35;;;;;;;;;;5066852;28;20056;-71
2023/05/15 14:22:46;;;;;;;2.65;2.30;;;;;;;;;;5070806;28;20049;-71
2023/05/15 14:25:13;;;;;;;3.55;2.20;;;;;;;;;;5066076;28;20052;-71
2023/05/15 14:27:42;;;;;;;2.50;1.95;;;;;;;;;;5069437;28;20150;-71
2023/05/15 14:30:10;;;;;;;3.63;2.20;;;;;;;;;;5068595;28;20059;-70
2023/05/15 14:32:37;;;;;;;2.22;2.03;;;;;;;;;;5069555;28;20059;-72
2023/05/15 14:35:04;;;;;;;3.30;2.42;;;;;;;;;;5066438;28;20140;-70
2023/05/15 14:37:32;;;;;;;2.83;1.67;;;;;;;;;;5071996;28;20400;-71
2023/05/15 14:39:59;;;;;;;2.83;2.13;;;;;;;;;;5069059;28;20435;-70
2023/05/15 14:42:27;;;;;;;3.83;2.25;;;;;;;;;;5067979;28;20411;-71
2023/05/15 14:44:55;;;;;;;3.38;2.45;;;;;;;;;;5067285;28;20135;-70